Time;durP1;ratioP1;P1;durP2;ratioP2;P2;SDS_P1;SDS_P2;PMS_P1;PMS_P2;Temp;Humidity;BMP_temperature;BMP_pressure;BME280_temperature;BME280_humidity;BME280_pressure;Samples;Min_cycle;Max_cycle;Signal;HPM_P1;HPM_P2
2022/04/04 00:00:50;;;;;;;1.60;1.27;;;18.60;42.80;;;;;;5056981;28;20183;-91
2022/04/04 00:03:16;;;;;;;1.37;1.13;;;18.60;42.80;;;;;;5055848;28;20188;-91
2022/04/04 00:05:42;;;;;;;1.40;1.20;;;18.60;42.80;;;;;;5055542;28;20269;-91
2022/04/04 00:08:08;;;;;;;1.83;1.30;;;18.60;42.80;;;;;;5054484;28;20509;-91
2022/04/04 00:10:34;;;;;;;1.20;1.10;;;18.60;42.90;;;;;;5054851;28;20195;-91
2022/04/04 00:13:00;;;;;;;1.60;1.40;;;18.60;42.90;;;;;;5054440;28;20194;-91
2022/04/04 00:15:27;;;;;;;1.30;1.20;;;18.50;42.90;;;;;;5054867;28;20174;-90
2022/04/04 00:17:55;;;;;;;1.50;1.23;;;18.50;42.90;;;;;;5054746;28;20187;-90
2022/04/04 00:20:22;;;;;;;1.10;1.03;;;18.50;43.30;;;;;;5055689;28;20185;-91
2022/04/04 00:22:48;;;;;;;1.63;1.27;;;18.50;43.00;;;;;;5055461;28;20175;-90
2022/04/04 00:25:14;;;;;;;1.63;1.20;;;18.50;43.00;;;;;;5055831;28;20245;-91
2022/04/04 00:27:40;;;;;;;1.87;1.30;;;18.50;43.00;;;;;;5055435;28;20244;-90
2022/04/04 00:30:06;;;;;;;1.50;1.40;;;18.50;42.90;;;;;;5054006;28;20216;-90
2022/04/04 00:32:32;;;;;;;1.43;1.30;;;18.40;42.90;;;;;;5053711;28;20175;-90
2022/04/04 00:35:00;;;;;;;1.50;1.20;;;18.40;42.90;;;;;;5054034;28;20484;-90
2022/04/04 00:37:26;;;;;;;1.63;1.30;;;18.50;42.90;;;;;;5052963;28;20180;-90
2022/04/04 00:39:52;;;;;;;1.60;1.37;;;18.50;42.90;;;;;;5054093;28;20172;-91
2022/04/04 00:42:18;;;;;;;1.50;1.27;;;18.50;42.90;;;;;;5054629;28;20240;-90
2022/04/04 00:44:45;;;;;;;1.80;1.60;;;18.50;42.90;;;;;;5054475;28;20186;-90
2022/04/04 00:47:12;;;;;;;1.80;1.10;;;18.50;42.90;;;;;;5055650;28;20179;-91
2022/04/04 00:49:38;;;;;;;1.30;1.20;;;18.50;42.90;;;;;;5055019;28;20209;-91
2022/04/04 00:52:05;;;;;;;1.70;1.10;;;18.40;42.80;;;;;;5054968;28;20180;-91
2022/04/04 00:54:33;;;;;;;1.30;1.20;;;18.50;42.80;;;;;;5052700;28;20212;-91
2022/04/04 00:57:01;;;;;;;1.90;1.17;;;18.40;42.80;;;;;;5053716;28;20181;-90
2022/04/04 00:59:28;;;;;;;1.47;1.10;;;18.40;42.80;;;;;;5053408;28;20180;-91
2022/04/04 01:01:54;;;;;;;1.43;1.33;;;18.40;42.80;;;;;;5054889;28;20205;-90
2022/04/04 01:04:20;;;;;;;1.20;1.10;;;18.40;42.80;;;;;;5055214;28;20178;-91
2022/04/04 01:06:45;;;;;;;1.53;1.10;;;18.40;42.80;;;;;;5054775;28;20578;-90
2022/04/04 01:09:14;;;;;;;1.97;1.30;;;18.40;42.80;;;;;;5054380;28;20251;-91
2022/04/04 01:12:02;;;;;;;1.40;1.30;;;18.40;42.80;;;;;;5054332;28;20182;-90
2022/04/04 01:14:28;;;;;;;1.53;1.27;;;18.40;42.80;;;;;;5054223;28;20209;-91
2022/04/04 01:16:54;;;;;;;2.30;1.33;;;18.30;42.70;;;;;;5051797;28;20613;-90
2022/04/04 01:19:20;;;;;;;2.87;1.30;;;18.30;42.80;;;;;;5052772;28;20279;-90
2022/04/04 01:21:46;;;;;;;1.47;1.23;;;18.30;42.80;;;;;;5052789;28;20273;-91
2022/04/04 01:24:18;;;;;;;1.27;1.13;;;18.20;42.80;;;;;;5053885;28;20285;-90
2022/04/04 01:26:51;;;;;;;1.63;1.33;;;18.30;42.90;;;;;;5053019;28;20180;-90
2022/04/04 01:29:20;;;;;;;1.40;1.10;;;18.20;42.80;;;;;;5054217;28;20180;-90
2022/04/04 01:31:46;;;;;;;1.43;1.20;;;18.20;42.90;;;;;;5053040;28;20170;-91
2022/04/04 01:34:12;;;;;;;1.50;1.20;;;18.10;42.90;;;;;;5054315;28;20205;-90
2022/04/04 01:36:38;;;;;;;1.47;1.20;;;18.10;42.90;;;;;;5052517;28;20174;-91
2022/04/04 01:39:04;;;;;;;1.30;1.20;;;18.00;42.90;;;;;;5051279;28;20178;-90
2022/04/04 01:41:31;;;;;;;1.40;1.10;;;18.00;43.00;;;;;;5051245;28;20519;-90
2022/04/04 01:43:57;;;;;;;1.10;1.00;;;17.90;43.00;;;;;;5052248;28;20179;-90
2022/04/04 01:46:27;;;;;;;1.20;1.10;;;17.90;43.00;;;;;;5054061;28;20174;-90
2022/04/04 01:49:01;;;;;;;1.23;1.13;;;17.90;43.00;;;;;;5052685;28;20177;-90
2022/04/04 01:51:29;;;;;;;1.60;1.37;;;17.90;43.00;;;;;;5048671;28;20218;-90
2022/04/04 01:53:55;;;;;;;1.30;1.20;;;17.90;43.00;;;;;;5052700;28;20671;-90
2022/04/04 01:56:23;;;;;;;1.40;1.20;;;17.80;43.00;;;;;;5051809;28;20279;-90
2022/04/04 01:58:49;;;;;;;1.30;1.20;;;17.80;43.10;;;;;;5051474;28;20384;-90
2022/04/04 02:01:18;;;;;;;1.20;1.10;;;17.70;43.10;;;;;;5051666;28;20300;-91
2022/04/04 02:03:46;;;;;;;1.30;1.17;;;17.70;43.10;;;;;;5054137;28;20180;-90
2022/04/04 02:06:13;;;;;;;1.40;1.30;;;17.70;43.20;;;;;;5052070;28;20179;-90
2022/04/04 02:08:42;;;;;;;1.20;1.00;;;17.60;43.10;;;;;;5052912;28;20192;-90
2022/04/04 02:11:08;;;;;;;1.40;1.13;;;17.60;43.20;;;;;;5052036;28;20554;-90
2022/04/04 02:13:34;;;;;;;1.20;1.10;;;17.60;43.20;;;;;;5052016;28;20205;-91
2022/04/04 02:16:01;;;;;;;1.73;1.50;;;17.60;43.30;;;;;;5051368;28;20178;-90
2022/04/04 02:18:29;;;;;;;1.50;1.30;;;17.50;43.20;;;;;;5052605;28;20443;-90
2022/04/04 02:20:54;;;;;;;1.73;1.00;;;17.50;43.30;;;;;;5051895;28;20255;-90
2022/04/04 02:23:20;;;;;;;1.43;1.13;;;17.40;43.30;;;;;;5052873;28;20285;-90
2022/04/04 02:25:48;;;;;;;1.50;1.10;;;17.40;43.30;;;;;;5052538;28;20182;-91
2022/04/04 02:28:15;;;;;;;1.40;1.20;;;17.40;43.30;;;;;;5051928;28;20174;-90
2022/04/04 02:30:45;;;;;;;1.20;1.10;;;17.30;43.30;;;;;;5053609;28;20243;-90
2022/04/04 02:33:12;;;;;;;1.20;1.10;;;17.30;43.30;;;;;;5052450;28;20201;-91
2022/04/04 02:35:39;;;;;;;1.50;1.20;;;17.30;43.30;;;;;;5052794;28;20191;-90
2022/04/04 02:38:05;;;;;;;1.20;1.03;;;17.30;43.30;;;;;;5050939;28;20183;-90
2022/04/04 02:40:31;;;;;;;1.50;1.20;;;17.20;43.30;;;;;;5051744;28;20177;-90
2022/04/04 02:42:57;;;;;;;1.07;1.00;;;17.20;43.40;;;;;;5051569;28;20187;-90
2022/04/04 02:45:23;;;;;;;1.33;1.10;;;17.10;43.40;;;;;;5051103;28;20192;-90
2022/04/04 02:47:49;;;;;;;1.20;1.10;;;17.10;43.40;;;;;;5052248;28;20288;-90
2022/04/04 02:50:16;;;;;;;1.23;1.13;;;17.10;43.40;;;;;;5052642;28;20276;-91
2022/04/04 02:52:43;;;;;;;1.20;1.03;;;17.00;43.50;;;;;;5050683;28;20185;-90
2022/04/04 02:57:55;;;;;;;1.37;1.27;;;16.90;43.50;;;;;;5052563;28;20323;-90
2022/04/04 03:00:25;;;;;;;1.33;1.07;;;16.90;43.60;;;;;;5051618;28;20191;-90
2022/04/04 03:02:53;;;;;;;1.30;1.10;;;17.00;43.60;;;;;;5052712;28;20577;-91
2022/04/04 03:05:19;;;;;;;1.17;1.07;;;19.90;41.90;;;;;;5053327;28;20195;-91
2022/04/04 03:07:45;;;;;;;1.47;0.90;;;20.70;39.80;;;;;;5052900;28;20176;-91
2022/04/04 03:10:12;;;;;;;1.57;1.20;;;20.80;39.40;;;;;;5053259;28;20174;-91
2022/04/04 03:12:56;;;;;;;1.30;1.20;;;21.00;39.20;;;;;;5056206;28;20179;-91
2022/04/04 03:15:23;;;;;;;2.73;1.27;;;21.30;38.90;;;;;;5057091;28;20216;-91
2022/04/04 03:17:55;;;;;;;1.53;1.17;;;21.50;38.70;;;;;;5056172;28;20537;-91
2022/04/04 03:20:23;;;;;;;1.13;1.03;;;22.00;38.40;;;;;;5056070;28;20172;-90
2022/04/04 03:22:54;;;;;;;1.33;1.20;;;22.40;37.90;;;;;;5055396;28;20204;-90
2022/04/04 03:25:20;;;;;;;1.57;1.20;;;22.90;37.50;;;;;;5056357;28;20181;-91
2022/04/04 03:27:47;;;;;;;1.47;1.03;;;23.10;37.60;;;;;;5056298;28;20191;-91
2022/04/04 03:30:17;;;;;;;1.60;1.27;;;23.50;37.00;;;;;;5055667;28;20245;-92
2022/04/04 03:32:47;;;;;;;1.23;1.13;;;23.60;36.80;;;;;;5054841;28;20278;-91
2022/04/04 03:35:17;;;;;;;1.30;1.00;;;23.60;36.70;;;;;;5055664;28;20213;-91
2022/04/04 03:37:46;;;;;;;1.10;1.00;;;23.70;36.60;;;;;;5055310;28;20446;-91
2022/04/04 03:40:13;;;;;;;1.03;1.00;;;23.50;36.60;;;;;;5054323;28;20176;-91
2022/04/04 03:42:40;;;;;;;1.23;1.07;;;23.30;36.80;;;;;;5055365;28;20546;-90
2022/04/04 03:45:06;;;;;;;1.33;1.17;;;23.00;37.10;;;;;;5054781;28;20269;-91
2022/04/04 03:47:33;;;;;;;1.10;1.00;;;22.80;37.30;;;;;;5054798;28;20356;-91
2022/04/04 03:49:59;;;;;;;1.53;1.03;;;22.60;37.50;;;;;;5054464;28;20283;-91
2022/04/04 03:52:28;;;;;;;1.30;1.20;;;22.30;37.70;;;;;;5054323;28;20181;-92
2022/04/04 03:54:54;;;;;;;1.07;1.00;;;22.10;37.90;;;;;;5054888;28;20211;-90
2022/04/04 03:57:20;;;;;;;3.47;1.00;;;21.80;38.10;;;;;;5055106;28;20165;-91
2022/04/04 03:59:46;;;;;;;1.23;1.10;;;21.60;38.30;;;;;;5054640;28;20269;-90
2022/04/04 04:02:13;;;;;;;1.33;1.10;;;21.40;38.50;;;;;;5054503;28;20174;-90
2022/04/04 04:04:40;;;;;;;1.20;1.00;;;21.20;38.70;;;;;;5054676;28;20190;-90
2022/04/04 04:07:10;;;;;;;1.20;1.10;;;21.00;38.90;;;;;;5053381;28;20172;-90
2022/04/04 04:09:36;;;;;;;1.53;1.20;;;20.80;39.10;;;;;;5054691;28;20296;-90
2022/04/04 04:12:02;;;;;;;1.27;1.10;;;20.70;39.20;;;;;;5054145;28;20185;-89
2022/04/04 04:14:28;;;;;;;1.70;1.20;;;20.30;39.30;;;;;;5054547;28;20198;-90
2022/04/04 04:16:54;;;;;;;1.97;1.20;;;20.20;39.60;;;;;;5054823;28;20228;-90
2022/04/04 04:22:04;;;;;;;1.50;1.00;;;19.80;39.90;;;;;;5053373;28;20649;-90
2022/04/04 04:24:30;;;;;;;1.40;1.10;;;19.70;40.00;;;;;;5052654;28;20196;-90
2022/04/04 04:26:56;;;;;;;1.20;1.10;;;19.50;40.20;;;;;;5053428;28;20174;-89
2022/04/04 04:29:22;;;;;;;1.50;1.10;;;19.30;40.30;;;;;;5053616;28;20177;-89
2022/04/04 04:31:47;;;;;;;1.37;1.20;;;19.20;40.50;;;;;;5054189;28;20179;-90
2022/04/04 04:34:13;;;;;;;1.53;1.20;;;19.00;40.70;;;;;;5053695;28;20212;-89
2022/04/04 04:36:39;;;;;;;1.13;1.03;;;18.80;40.80;;;;;;5052362;28;20169;-89
2022/04/04 04:39:09;;;;;;;1.57;1.13;;;18.70;41.00;;;;;;5052513;28;20396;-90
2022/04/04 04:41:34;;;;;;;1.57;1.10;;;18.60;41.10;;;;;;5053298;28;20176;-89
2022/04/04 04:44:03;;;;;;;1.30;1.10;;;18.40;41.30;;;;;;5052889;28;20174;-90
2022/04/04 04:46:30;;;;;;;1.67;1.23;;;18.30;41.40;;;;;;5052941;28;20426;-90
2022/04/04 04:48:56;;;;;;;1.10;1.00;;;18.20;41.50;;;;;;5052537;28;20172;-89
2022/04/04 04:51:21;;;;;;;1.07;0.97;;;18.20;41.60;;;;;;5053266;28;20180;-90
2022/04/04 04:53:47;;;;;;;1.70;1.13;;;18.60;41.40;;;;;;5052282;28;20232;-90
2022/04/04 04:56:14;;;;;;;1.97;1.10;;;19.20;40.90;;;;;;5052872;28;20497;-90
2022/04/04 04:58:39;;;;;;;1.20;1.10;;;19.70;40.20;;;;;;5051916;28;20168;-90
2022/04/04 05:01:05;;;;;;;1.57;1.17;;;20.50;39.80;;;;;;5050161;28;20172;-90
2022/04/04 05:03:31;;;;;;;1.20;1.10;;;21.50;38.50;;;;;;5050855;28;20178;-90
2022/04/04 05:05:57;;;;;;;3.33;1.10;;;22.30;37.60;;;;;;5050640;28;20168;-90
2022/04/04 05:08:23;;;;;;;1.57;1.13;;;23.10;36.90;;;;;;5051284;28;20237;-90
2022/04/04 05:10:49;;;;;;;2.57;1.20;;;23.60;36.20;;;;;;5050234;28;20265;-90
2022/04/04 05:13:15;;;;;;;1.20;1.10;;;23.70;35.90;;;;;;5048842;28;20477;-90
2022/04/04 05:15:41;;;;;;;1.87;1.23;;;23.80;35.80;;;;;;5050414;28;20213;-89
2022/04/04 05:18:06;;;;;;;2.93;1.30;;;23.90;35.70;;;;;;5048711;28;20263;-90
2022/04/04 05:20:32;;;;;;;1.23;1.13;;;23.80;35.70;;;;;;5050357;28;20313;-90
2022/04/04 05:22:58;;;;;;;1.30;1.20;;;23.60;35.70;;;;;;5048458;28;20170;-89
2022/04/04 05:25:24;;;;;;;1.30;1.20;;;23.40;35.90;;;;;;5048526;28;20231;-89
2022/04/04 05:27:52;;;;;;;1.20;1.10;;;23.10;36.10;;;;;;5047193;28;20189;-89
2022/04/04 05:30:18;;;;;;;1.20;1.10;;;22.90;36.30;;;;;;5046746;28;20456;-90
2022/04/04 05:32:44;;;;;;;3.33;1.13;;;22.60;36.60;;;;;;5046693;28;20193;-90
2022/04/04 05:35:12;;;;;;;2.07;1.10;;;22.30;36.80;;;;;;5048505;28;20494;-89
2022/04/04 05:37:38;;;;;;;2.20;1.03;;;22.00;37.10;;;;;;5046912;28;20175;-89
2022/04/04 05:40:05;;;;;;;1.30;1.20;;;21.70;37.30;;;;;;5048040;28;20188;-89
2022/04/04 05:42:31;;;;;;;1.50;1.10;;;21.40;37.50;;;;;;5047634;28;20200;-89
2022/04/04 05:44:57;;;;;;;1.30;1.20;;;21.20;37.70;;;;;;5046977;28;20178;-89
2022/04/04 05:47:23;;;;;;;1.37;1.10;;;21.00;38.00;;;;;;5046257;28;20267;-90
2022/04/04 05:49:49;;;;;;;1.93;1.20;;;20.70;38.20;;;;;;5047497;28;20278;-90
2022/04/04 05:52:15;;;;;;;1.17;1.03;;;20.40;38.30;;;;;;5047557;28;20620;-91
2022/04/04 05:54:54;;;;;;;1.50;1.13;;;20.30;38.60;;;;;;5047783;28;20234;-90
2022/04/04 05:57:24;;;;;;;1.60;1.27;;;20.00;38.70;;;;;;5047476;28;20440;-89
2022/04/04 05:59:51;;;;;;;2.57;1.40;;;19.80;39.00;;;;;;5047459;28;20369;-90
2022/04/04 06:02:17;;;;;;;2.93;1.40;;;19.60;39.10;;;;;;5048482;28;20179;-89
2022/04/04 06:04:43;;;;;;;1.60;1.20;;;19.50;39.30;;;;;;5047822;28;20179;-90
2022/04/04 06:07:08;;;;;;;1.63;1.30;;;19.20;39.40;;;;;;5047194;28;20308;-90
2022/04/04 06:09:34;;;;;;;3.23;1.20;;;19.10;39.70;;;;;;5046343;28;20176;-89
2022/04/04 06:12:00;;;;;;;1.30;1.20;;;18.90;39.80;;;;;;5047530;28;20172;-91
2022/04/04 06:14:25;;;;;;;1.40;1.30;;;18.70;39.90;;;;;;5048604;28;20215;-90
2022/04/04 06:16:51;;;;;;;1.60;1.23;;;18.70;40.10;;;;;;5047098;28;20258;-89
2022/04/04 06:19:17;;;;;;;4.77;1.37;;;19.00;40.00;;;;;;5047505;28;20447;-89
2022/04/04 06:21:43;;;;;;;1.60;1.20;;;19.60;39.50;;;;;;5047714;28;20164;-90
2022/04/04 06:24:10;;;;;;;1.87;1.40;;;20.20;38.80;;;;;;5048467;28;20185;-91
2022/04/04 06:26:36;;;;;;;1.80;1.50;;;20.80;38.20;;;;;;5047671;28;20184;-91
2022/04/04 06:29:02;;;;;;;1.20;1.10;;;21.40;37.50;;;;;;5049126;28;20352;-91
2022/04/04 06:31:28;;;;;;;1.83;1.40;;;22.00;37.00;;;;;;5048240;28;20191;-91
2022/04/04 06:33:54;;;;;;;2.23;1.20;;;22.80;36.50;;;;;;5047941;28;20213;-91
2022/04/04 06:36:23;;;;;;;1.53;1.07;;;23.40;36.00;;;;;;5046893;28;20177;-92
2022/04/04 06:38:50;;;;;;;1.43;0.97;;;23.90;35.80;;;;;;5047455;28;20609;-92
2022/04/04 06:41:16;;;;;;;1.73;1.40;;;24.20;35.60;;;;;;5048477;28;20290;-91
2022/04/04 06:43:41;;;;;;;1.53;1.20;;;24.40;35.50;;;;;;5048626;28;20645;-91
2022/04/04 06:46:08;;;;;;;1.60;1.13;;;24.30;35.60;;;;;;5047970;28;20180;-91
2022/04/04 06:48:34;;;;;;;2.17;1.30;;;24.10;35.70;;;;;;5050265;28;20342;-91
2022/04/04 06:51:01;;;;;;;1.67;1.20;;;24.00;35.80;;;;;;5050612;28;20561;-91
2022/04/04 06:53:26;;;;;;;2.53;1.40;;;23.70;36.00;;;;;;5051882;28;20194;-91
2022/04/04 06:55:52;;;;;;;2.03;1.30;;;23.50;36.20;;;;;;5051664;28;20180;-91
2022/04/04 06:58:18;;;;;;;2.73;1.30;;;23.30;36.40;;;;;;5051999;28;20262;-90
2022/04/04 07:00:45;;;;;;;1.90;1.30;;;22.80;36.70;;;;;;5049891;28;20309;-90
2022/04/04 07:03:10;;;;;;;3.07;1.40;;;22.60;36.90;;;;;;5048645;28;20452;-89
2022/04/04 07:05:36;;;;;;;3.13;1.50;;;22.30;37.10;;;;;;5048832;28;20172;-89
2022/04/04 07:08:02;;;;;;;2.43;1.40;;;22.10;37.40;;;;;;5050129;28;20214;-89
2022/04/04 07:10:28;;;;;;;2.17;1.50;;;21.80;37.50;;;;;;5051560;28;20229;-90
2022/04/04 07:12:54;;;;;;;1.70;1.30;;;21.60;37.70;;;;;;5050653;28;20333;-89
2022/04/04 07:15:20;;;;;;;2.57;1.60;;;21.30;38.00;;;;;;5049462;28;20208;-89
2022/04/04 07:17:45;;;;;;;2.17;1.80;;;21.00;38.20;;;;;;5049974;28;20175;-89
2022/04/04 07:20:12;;;;;;;4.77;1.60;;;20.80;38.40;;;;;;5050340;28;20233;-89
2022/04/04 07:22:40;;;;;;;3.93;1.70;;;20.50;38.80;;;;;;5048790;28;20183;-90
2022/04/04 07:25:10;;;;;;;2.53;1.30;;;20.30;39.00;;;;;;5031191;28;20184;-90
2022/04/04 07:27:39;;;;;;;1.80;1.50;;;20.20;39.20;;;;;;5049030;28;20281;-90
2022/04/04 07:30:06;;;;;;;3.27;1.50;;;20.10;39.20;;;;;;5051571;28;20168;-91
2022/04/04 07:32:35;;;;;;;2.00;1.57;;;19.90;39.30;;;;;;5050713;28;20398;-91
2022/04/04 07:35:01;;;;;;;2.57;1.43;;;19.80;39.60;;;;;;5048028;28;20217;-91
2022/04/04 07:37:26;;;;;;;2.33;1.53;;;19.50;39.70;;;;;;5048938;28;20303;-91
2022/04/04 07:39:52;;;;;;;3.03;1.60;;;19.30;39.90;;;;;;5050539;28;20181;-91
2022/04/04 07:42:18;;;;;;;2.83;1.67;;;19.30;40.00;;;;;;5050217;28;20179;-91
2022/04/04 07:44:44;;;;;;;4.97;1.80;;;19.20;40.10;;;;;;5050214;28;20342;-91
2022/04/04 07:47:09;;;;;;;2.33;1.50;;;19.40;40.00;;;;;;5049357;28;20481;-91
2022/04/04 07:49:35;;;;;;;3.27;1.60;;;19.60;39.60;;;;;;5049095;28;20404;-91
2022/04/04 07:52:01;;;;;;;3.03;1.50;;;20.00;39.30;;;;;;5049607;28;20392;-91
2022/04/04 07:54:27;;;;;;;2.07;1.40;;;20.40;39.00;;;;;;5050918;28;20209;-91
2022/04/04 07:56:55;;;;;;;4.20;1.60;;;21.00;38.60;;;;;;5051822;28;20236;-92
2022/04/04 07:59:22;;;;;;;3.03;1.37;;;21.70;38.00;;;;;;5051434;28;20262;-91
2022/04/04 08:01:48;;;;;;;2.10;1.30;;;22.40;37.30;;;;;;5051717;28;20559;-90
2022/04/04 08:04:13;;;;;;;4.00;1.50;;;23.00;36.70;;;;;;5048260;28;20184;-90
2022/04/04 08:06:39;;;;;;;1.93;1.50;;;23.40;36.30;;;;;;5048930;28;20187;-91
2022/04/04 08:09:07;;;;;;;3.73;1.40;;;23.70;35.80;;;;;;5048720;28;20181;-91
2022/04/04 08:11:33;;;;;;;2.60;1.57;;;24.00;35.70;;;;;;5049886;28;20255;-90
2022/04/04 08:13:58;;;;;;;2.60;1.30;;;23.80;35.60;;;;;;5048913;28;20207;-89
2022/04/04 08:16:26;;;;;;;1.70;1.37;;;23.70;35.60;;;;;;5048942;28;20487;-90
2022/04/04 08:18:53;;;;;;;1.50;1.40;;;23.70;35.60;;;;;;5049321;28;20235;-90
2022/04/04 08:21:20;;;;;;;3.33;1.70;;;23.50;35.60;;;;;;5048836;28;20460;-91
2022/04/04 08:23:46;;;;;;;1.80;1.30;;;23.20;35.90;;;;;;5050335;28;20176;-91
2022/04/04 08:26:12;;;;;;;1.67;1.40;;;23.00;36.10;;;;;;5048488;28;20321;-89
2022/04/04 08:28:38;;;;;;;3.97;1.40;;;22.80;36.20;;;;;;5048536;28;20247;-90
2022/04/04 08:31:04;;;;;;;1.43;1.20;;;22.60;36.30;;;;;;5048369;28;20200;-89
2022/04/04 08:33:29;;;;;;;2.13;1.30;;;22.40;36.50;;;;;;5048193;28;20278;-90
2022/04/04 08:35:57;;;;;;;3.73;1.63;;;22.20;36.70;;;;;;5047842;28;20242;-91
2022/04/04 08:38:23;;;;;;;2.03;1.40;;;21.90;36.80;;;;;;5049181;28;20262;-91
2022/04/04 08:40:50;;;;;;;1.60;1.20;;;21.70;37.10;;;;;;5047702;28;20448;-91
2022/04/04 08:43:18;;;;;;;3.70;1.27;;;21.50;37.30;;;;;;5048024;28;20183;-91
2022/04/04 08:45:44;;;;;;;2.87;1.40;;;21.30;37.50;;;;;;5048577;28;20191;-90
2022/04/04 08:48:11;;;;;;;2.90;1.40;;;21.00;37.70;;;;;;5049498;28;20183;-92
2022/04/04 08:50:39;;;;;;;1.83;1.23;;;20.80;37.90;;;;;;5049573;28;20168;-91
2022/04/04 08:53:05;;;;;;;8.03;1.70;;;20.50;38.10;;;;;;5049316;28;20427;-91
2022/04/04 08:55:32;;;;;;;2.60;1.30;;;20.40;38.30;;;;;;5048947;28;20207;-90
2022/04/04 08:57:58;;;;;;;3.17;1.40;;;20.10;38.60;;;;;;5049836;28;20164;-92
2022/04/04 09:00:25;;;;;;;2.97;1.50;;;19.80;38.70;;;;;;5050488;28;20164;-91
2022/04/04 09:02:56;;;;;;;2.73;1.47;;;19.70;38.70;;;;;;5048676;28;20174;-92
2022/04/04 09:05:22;;;;;;;2.53;1.40;;;19.60;39.00;;;;;;5049365;28;20182;-92
2022/04/04 09:08:03;;;;;;;2.97;1.20;;;19.70;39.00;;;;;;5048382;28;20193;-90
2022/04/04 09:10:35;;;;;;;1.80;1.20;;;20.00;38.80;;;;;;5046345;28;20457;-90
2022/04/04 09:13:10;;;;;;;1.80;1.00;;;20.40;38.50;;;;;;5047054;28;20178;-90
2022/04/04 09:15:57;;;;;;;2.20;1.20;;;20.90;37.90;;;;;;5045380;28;20271;-90
2022/04/04 09:18:35;;;;;;;2.60;1.40;;;21.50;37.20;;;;;;5047368;28;20177;-91
2022/04/04 09:21:03;;;;;;;2.90;1.50;;;21.80;36.90;;;;;;5044887;28;20190;-91
2022/04/04 09:23:42;;;;;;;2.03;1.40;;;22.00;36.70;;;;;;5046187;28;20185;-89
2022/04/04 09:26:36;;;;;;;1.70;1.20;;;22.30;36.50;;;;;;5047762;28;20554;-89
2022/04/04 09:29:16;;;;;;;2.97;1.40;;;22.80;36.30;;;;;;5046022;28;20232;-90
2022/04/04 09:32:05;;;;;;;3.50;1.93;;;23.00;36.10;;;;;;5045721;28;20566;-89
2022/04/04 09:34:49;;;;;;;4.80;1.80;;;23.30;35.90;;;;;;5005858;28;1183045;-89
2022/04/04 09:37:16;;;;;;;2.60;1.40;;;23.40;35.90;;;;;;5047477;28;20168;-89
2022/04/04 09:39:42;;;;;;;3.70;1.50;;;23.30;35.90;;;;;;5047013;28;20491;-91
2022/04/04 09:42:19;;;;;;;3.37;1.73;;;23.20;36.00;;;;;;5047593;28;20575;-92
2022/04/04 09:44:59;;;;;;;5.83;1.70;;;22.90;36.20;;;;;;5047261;28;20172;-89
2022/04/04 09:47:44;;;;;;;2.53;1.50;;;22.60;36.30;;;;;;5046775;28;20331;-89
2022/04/04 09:50:10;;;;;;;6.20;1.53;;;22.30;36.50;;;;;;5048049;28;20529;-89
2022/04/04 09:52:52;;;;;;;3.20;1.60;;;22.20;36.70;;;;;;5046847;28;20616;-89
2022/04/04 09:55:34;;;;;;;2.90;1.50;;;21.90;36.90;;;;;;5046925;28;20278;-90
2022/04/04 09:58:06;;;;;;;4.97;1.57;;;21.60;37.40;;;;;;5047061;28;20241;-91
2022/04/04 10:00:35;;;;;;;3.00;1.53;;;21.40;37.30;;;;;;5047317;28;20170;-90
2022/04/04 10:03:03;;;;;;;1.87;1.50;;;21.20;37.40;;;;;;5048090;28;20287;-90
2022/04/04 10:05:29;;;;;;;3.10;1.67;;;21.10;37.60;;;;;;5047847;28;20167;-89
2022/04/04 10:07:56;;;;;;;2.23;1.60;;;20.80;37.80;;;;;;5045772;28;20296;-90
2022/04/04 10:10:28;;;;;;;2.03;1.40;;;20.60;37.90;;;;;;5048197;28;20190;-91
2022/04/04 10:12:54;;;;;;;5.07;1.73;;;20.40;38.20;;;;;;5048259;28;20187;-90
2022/04/04 10:15:22;;;;;;;3.33;1.53;;;20.20;38.40;;;;;;5047041;28;20244;-90
2022/04/04 10:17:49;;;;;;;3.23;1.40;;;20.10;38.60;;;;;;5047350;28;20171;-89
2022/04/04 10:20:16;;;;;;;2.40;1.33;;;19.80;38.70;;;;;;5047230;28;20172;-91
2022/04/04 10:22:42;;;;;;;1.87;1.37;;;19.70;39.00;;;;;;5050089;28;20174;-90
2022/04/04 10:25:09;;;;;;;2.67;1.27;;;19.60;39.20;;;;;;5049973;28;20183;-91
2022/04/04 10:27:36;;;;;;;1.60;1.27;;;19.50;39.30;;;;;;5051788;28;20166;-91
2022/04/04 10:30:08;;;;;;;3.60;1.43;;;19.60;39.40;;;;;;5050667;28;20287;-90
2022/04/04 10:32:34;;;;;;;1.80;1.40;;;19.80;39.10;;;;;;5052375;28;20178;-91
2022/04/04 10:35:12;;;;;;;2.77;1.20;;;20.10;38.80;;;;;;5051482;28;20223;-90
2022/04/04 10:37:45;;;;;;;1.57;1.13;;;20.60;38.40;;;;;;5051571;28;20176;-91
2022/04/04 10:40:28;;;;;;;1.93;1.47;;;20.80;38.20;;;;;;5050301;28;20169;-89
2022/04/04 10:43:21;;;;;;;2.10;1.30;;;21.10;37.90;;;;;;5053197;28;20171;-89
2022/04/04 10:45:57;;;;;;;1.73;1.30;;;21.40;37.50;;;;;;5046114;28;20189;-90
2022/04/04 10:48:35;;;;;;;3.40;1.20;;;21.70;37.20;;;;;;5049221;28;20275;-89
2022/04/04 10:51:23;;;;;;;2.33;1.40;;;21.80;37.00;;;;;;5049254;28;20191;-90
2022/04/04 10:53:54;;;;;;;1.90;1.40;;;21.80;36.90;;;;;;5035435;28;20208;-91
2022/04/04 10:56:39;;;;;;;2.37;1.20;;;21.70;37.00;;;;;;5049711;28;20181;-91
2022/04/04 10:59:20;;;;;;;1.53;1.00;;;21.30;37.10;;;;;;5051877;28;20179;-90
2022/04/04 11:01:55;;;;;;;1.90;1.00;;;21.00;37.50;;;;;;5050950;28;20510;-91
2022/04/04 11:04:29;;;;;;;1.43;1.30;;;20.70;37.80;;;;;;5051582;28;20190;-90
2022/04/04 11:10:03;;;;;;;2.20;1.27;;;20.20;38.30;;;;;;5050915;28;20291;-90
2022/04/04 11:12:29;;;;;;;2.53;1.20;;;20.00;38.50;;;;;;5048792;28;20349;-91
2022/04/04 11:15:07;;;;;;;2.57;1.50;;;20.10;38.60;;;;;;5047957;28;20468;-91
2022/04/04 11:17:54;;;;;;;2.37;1.20;;;20.30;38.40;;;;;;5048370;28;20429;-90
2022/04/04 11:20:31;;;;;;;4.03;1.30;;;20.40;38.20;;;;;;5050000;28;20234;-91
2022/04/04 11:23:04;;;;;;;1.90;1.10;;;20.70;37.90;;;;;;5049132;28;20496;-91
2022/04/04 11:25:34;;;;;;;3.00;1.30;;;20.80;37.80;;;;;;5049423;28;20180;-91
2022/04/04 11:28:07;;;;;;;1.80;1.30;;;21.10;37.60;;;;;;5049150;28;20172;-90
2022/04/04 11:30:33;;;;;;;2.60;1.13;;;21.30;37.30;;;;;;5047938;28;20351;-90
2022/04/04 11:32:59;;;;;;;2.30;1.30;;;21.30;37.20;;;;;;5046721;28;20184;-90
2022/04/04 11:35:32;;;;;;;2.00;1.33;;;21.30;37.30;;;;;;5047585;28;20204;-90
2022/04/04 11:38:03;;;;;;;1.47;1.20;;;21.40;37.30;;;;;;5048408;28;20475;-90
2022/04/04 11:40:34;;;;;;;2.43;1.00;;;21.60;37.20;;;;;;5046544;28;20169;-92
2022/04/04 11:43:07;;;;;;;1.77;1.30;;;21.70;37.10;;;;;;5048607;28;20180;-90
2022/04/04 11:45:36;;;;;;;1.83;1.23;;;21.80;37.00;;;;;;5048022;28;20178;-90
2022/04/04 11:48:10;;;;;;;1.50;1.20;;;21.90;36.90;;;;;;5048096;28;20563;-91
2022/04/04 11:50:37;;;;;;;1.37;1.20;;;21.90;36.90;;;;;;5048001;28;20240;-89
2022/04/04 11:53:15;;;;;;;1.40;1.17;;;22.10;36.80;;;;;;5048662;28;20186;-89
2022/04/04 11:55:46;;;;;;;1.77;1.50;;;22.10;36.80;;;;;;5048521;28;20216;-91
2022/04/04 11:58:14;;;;;;;2.50;1.30;;;22.10;36.80;;;;;;5049778;28;20168;-90
2022/04/04 12:00:53;;;;;;;2.60;1.30;;;21.90;36.90;;;;;;5048634;28;20186;-91
2022/04/04 12:03:20;;;;;;;1.60;1.40;;;21.80;36.90;;;;;;5049151;28;20184;-90
2022/04/04 12:05:50;;;;;;;1.70;1.33;;;21.60;37.10;;;;;;5051124;28;20195;-90
2022/04/04 12:08:17;;;;;;;1.97;1.30;;;21.50;37.20;;;;;;5049595;28;20548;-90
2022/04/04 12:10:43;;;;;;;2.70;1.30;;;21.30;37.40;;;;;;5049666;28;20597;-90
2022/04/04 12:13:11;;;;;;;2.60;1.17;;;21.10;37.60;;;;;;5050464;28;20411;-93
2022/04/04 12:15:40;;;;;;;1.73;1.37;;;21.00;37.80;;;;;;5050407;28;20313;-91
2022/04/04 12:18:07;;;;;;;2.93;1.47;;;20.80;37.90;;;;;;5049036;28;20552;-91
2022/04/04 12:20:38;;;;;;;1.80;1.20;;;20.70;38.00;;;;;;5049935;28;20185;-90
2022/04/04 12:25:52;;;;;;;1.33;1.20;;;20.50;38.40;;;;;;5049008;28;20207;-89
2022/04/04 12:28:27;;;;;;;1.80;1.40;;;20.30;38.40;;;;;;5046006;28;20445;-92
2022/04/04 12:30:53;;;;;;;2.70;1.30;;;20.20;38.60;;;;;;5047031;28;20516;-91
2022/04/04 12:33:19;;;;;;;2.10;1.30;;;20.20;38.60;;;;;;5048849;28;20196;-91
2022/04/04 12:35:48;;;;;;;1.40;1.20;;;20.20;38.70;;;;;;5049253;28;20487;-90
2022/04/04 12:38:29;;;;;;;1.43;1.23;;;20.20;38.60;;;;;;5047289;28;20271;-90
2022/04/04 12:41:07;;;;;;;1.83;1.20;;;20.20;38.60;;;;;;5047105;28;20466;-89
2022/04/04 12:43:33;;;;;;;2.47;1.50;;;20.50;38.50;;;;;;5047173;28;20261;-90
2022/04/04 12:45:58;;;;;;;2.43;1.20;;;20.60;38.30;;;;;;5047485;28;20431;-90
2022/04/04 12:48:38;;;;;;;3.40;1.33;;;20.60;38.30;;;;;;5048098;28;20686;-90
2022/04/04 12:51:06;;;;;;;1.90;1.30;;;20.70;38.20;;;;;;5046259;28;20184;-89
2022/04/04 12:53:52;;;;;;;2.00;1.47;;;20.80;38.10;;;;;;5047605;28;20176;-90
2022/04/04 12:56:18;;;;;;;1.73;1.40;;;21.10;37.90;;;;;;5046508;28;20516;-90
2022/04/04 12:59:02;;;;;;;1.93;1.30;;;21.10;37.80;;;;;;5047030;28;20571;-90
2022/04/04 13:01:28;;;;;;;1.67;1.20;;;21.20;37.80;;;;;;5047970;28;20207;-91
2022/04/04 13:03:55;;;;;;;1.93;1.10;;;21.30;37.80;;;;;;5047222;28;20281;-90
2022/04/04 13:06:21;;;;;;;1.77;1.10;;;21.50;37.60;;;;;;5047477;28;20641;-90